Time;durP1;ratioP1;P1;durP2;ratioP2;P2;SDS_P1;SDS_P2;PMS_P1;PMS_P2;Temp;Humidity;BMP_temperature;BMP_pressure;BME280_temperature;BME280_humidity;BME280_pressure;Samples;Min_cycle;Max_cycle;Signal;HPM_P1;HPM_P2
2023/04/23 00:01:16;;;;;;;125.93;46.00;;;7.80;99.90;;;;;;5051804;28;20052;-65
2023/04/23 00:03:44;;;;;;;100.95;44.80;;;7.70;99.90;;;;;;5066919;28;20372;-65
2023/04/23 00:06:10;;;;;;;146.38;48.92;;;7.70;99.90;;;;;;5066929;28;20044;-65
2023/04/23 00:08:40;;;;;;;130.93;46.67;;;7.70;99.90;;;;;;5083968;28;20032;-65
2023/04/23 00:11:07;;;;;;;147.45;50.50;;;7.70;99.90;;;;;;5052301;28;20186;-65
2023/04/23 00:13:33;;;;;;;137.05;47.85;;;7.70;99.90;;;;;;5046761;28;20368;-65
2023/04/23 00:15:59;;;;;;;160.10;48.95;;;7.60;99.90;;;;;;5046629;28;20055;-64
2023/04/23 00:18:25;;;;;;;148.25;48.75;;;7.60;99.90;;;;;;5030462;28;20051;-65
2023/04/23 00:20:51;;;;;;;156.85;48.65;;;7.60;99.90;;;;;;5083389;28;20040;-65
2023/04/23 00:23:17;;;;;;;142.40;46.95;;;7.60;99.90;;;;;;5083717;28;20044;-65
2023/04/23 00:25:42;;;;;;;136.43;48.00;;;7.60;99.90;;;;;;5060955;28;20055;-65
2023/04/23 00:28:08;;;;;;;149.60;47.38;;;7.60;99.90;;;;;;5065217;28;20097;-65
2023/04/23 00:30:34;;;;;;;105.90;43.78;;;7.60;99.90;;;;;;5082292;28;20074;-65
2023/04/23 00:33:00;;;;;;;97.05;42.42;;;7.50;99.90;;;;;;5083463;28;20128;-65
2023/04/23 00:35:26;;;;;;;142.25;45.70;;;7.50;99.90;;;;;;5083581;28;20158;-66
2023/04/23 00:37:51;;;;;;;108.65;41.30;;;7.50;99.90;;;;;;5065263;28;20259;-66
2023/04/23 00:40:17;;;;;;;142.38;45.55;;;7.50;99.90;;;;;;5064420;28;20244;-67
2023/04/23 00:42:44;;;;;;;163.40;50.97;;;7.50;99.90;;;;;;5083478;28;20040;-67
2023/04/23 00:45:11;;;;;;;112.30;42.92;;;7.50;99.90;;;;;;5066810;28;20568;-64
2023/04/23 00:47:36;;;;;;;133.85;43.97;;;7.50;99.90;;;;;;5046373;28;20037;-64
2023/04/23 00:50:03;;;;;;;98.22;40.88;;;7.50;99.90;;;;;;5063309;28;20041;-64
2023/04/23 00:52:29;;;;;;;124.40;42.30;;;7.50;99.90;;;;;;5068247;28;20082;-65
2023/04/23 00:54:55;;;;;;;114.47;41.28;;;7.50;99.90;;;;;;5070140;28;20071;-66
2023/04/23 00:57:24;;;;;;;102.93;42.65;;;7.50;99.90;;;;;;5051539;28;20603;-65
2023/04/23 00:59:51;;;;;;;138.52;43.80;;;7.50;99.90;;;;;;5050196;28;20480;-64
2023/04/23 01:02:17;;;;;;;106.90;41.53;;;7.40;99.90;;;;;;5050239;28;20207;-65
2023/04/23 01:04:43;;;;;;;102.80;40.55;;;7.40;99.90;;;;;;5050112;28;20068;-65
2023/04/23 01:07:11;;;;;;;117.00;41.60;;;7.40;99.90;;;;;;5066983;28;20047;-65
2023/04/23 01:09:38;;;;;;;138.23;44.22;;;7.30;99.90;;;;;;5066499;28;20373;-68
2023/04/23 01:12:05;;;;;;;117.40;42.67;;;7.30;99.90;;;;;;5066684;28;20040;-64
2023/04/23 01:14:32;;;;;;;105.18;40.72;;;7.30;99.90;;;;;;5050052;28;20404;-64
2023/04/23 01:16:57;;;;;;;152.73;43.72;;;7.30;99.90;;;;;;5049982;28;20063;-65
2023/04/23 01:19:24;;;;;;;144.35;43.75;;;7.30;99.90;;;;;;5077111;28;20048;-65
2023/04/23 01:21:50;;;;;;;154.20;42.72;;;7.30;99.90;;;;;;5087135;28;20055;-65
2023/04/23 01:24:16;;;;;;;161.23;44.08;;;7.30;99.90;;;;;;5086523;28;20039;-66
2023/04/23 01:26:41;;;;;;;164.57;44.35;;;7.30;99.90;;;;;;5081564;28;20040;-65
2023/04/23 01:29:09;;;;;;;144.32;43.22;;;7.30;99.90;;;;;;5061931;28;20044;-64
2023/04/23 01:31:35;;;;;;;209.68;47.83;;;7.30;99.90;;;;;;5066486;28;20372;-64
2023/04/23 01:34:01;;;;;;;147.32;44.92;;;7.30;99.90;;;;;;5066298;28;20049;-65
2023/04/23 01:36:28;;;;;;;138.90;44.95;;;7.30;99.90;;;;;;5049898;28;20053;-64
2023/04/23 01:38:54;;;;;;;142.68;44.58;;;7.30;99.90;;;;;;5049717;28;20501;-64
2023/04/23 01:41:20;;;;;;;138.07;44.25;;;7.30;99.90;;;;;;5049167;28;20123;-64
2023/04/23 01:43:45;;;;;;;108.13;43.05;;;7.20;99.90;;;;;;5064574;28;20033;-66
2023/04/23 01:46:11;;;;;;;132.93;45.20;;;7.20;99.90;;;;;;5049541;28;20132;-64
2023/04/23 01:48:38;;;;;;;128.13;43.58;;;7.20;99.90;;;;;;5049522;28;20067;-66
2023/04/23 01:51:04;;;;;;;151.00;44.90;;;7.20;99.90;;;;;;5056580;28;20036;-65
2023/04/23 01:53:30;;;;;;;111.78;43.15;;;7.20;99.90;;;;;;5086768;28;20538;-64
2023/04/23 01:55:56;;;;;;;121.60;44.83;;;7.20;99.90;;;;;;5078838;28;20129;-65
2023/04/23 01:58:23;;;;;;;106.55;42.00;;;7.10;99.90;;;;;;5049238;28;20060;-65
2023/04/23 02:00:49;;;;;;;116.20;43.25;;;7.10;99.90;;;;;;5049367;28;20237;-65
2023/04/23 02:03:18;;;;;;;118.75;43.33;;;7.10;99.90;;;;;;5065311;28;20041;-61
2023/04/23 02:05:43;;;;;;;124.80;45.72;;;7.10;99.90;;;;;;5067148;28;20117;-61
2023/04/23 02:08:10;;;;;;;113.35;45.05;;;7.00;99.90;;;;;;5067143;28;20036;-63
2023/04/23 02:10:35;;;;;;;111.63;44.60;;;7.00;99.90;;;;;;5065336;28;20040;-62
2023/04/23 02:13:02;;;;;;;126.53;45.78;;;7.00;99.90;;;;;;5066805;28;20062;-61
2023/04/23 02:15:28;;;;;;;117.63;43.63;;;7.00;99.90;;;;;;5067003;28;20410;-61
2023/04/23 02:17:53;;;;;;;116.85;44.78;;;7.00;99.90;;;;;;5067183;28;20570;-63
2023/04/23 02:20:20;;;;;;;138.63;48.78;;;6.90;99.90;;;;;;5065328;28;20080;-62
2023/04/23 02:22:47;;;;;;;124.60;44.70;;;6.90;99.90;;;;;;5065418;28;20060;-62
2023/04/23 02:25:16;;;;;;;141.18;48.53;;;6.90;99.90;;;;;;5066134;28;20049;-62
2023/04/23 02:27:43;;;;;;;129.25;47.17;;;6.90;99.90;;;;;;5065509;28;20426;-62
2023/04/23 02:30:10;;;;;;;148.13;48.97;;;6.80;99.90;;;;;;5048474;28;20059;-63
2023/04/23 02:32:36;;;;;;;108.03;44.15;;;6.80;99.90;;;;;;5066681;28;20055;-62
2023/04/23 02:35:05;;;;;;;110.22;46.40;;;6.80;99.90;;;;;;5066531;28;20523;-60
2023/04/23 02:37:32;;;;;;;106.93;43.38;;;6.70;99.90;;;;;;5048609;28;20098;-61
2023/04/23 02:39:58;;;;;;;113.90;43.40;;;6.70;99.90;;;;;;5064623;28;20556;-61
2023/04/23 02:42:24;;;;;;;99.43;43.33;;;6.70;99.90;;;;;;5064862;28;20127;-61
2023/04/23 02:44:49;;;;;;;98.22;41.95;;;6.60;99.90;;;;;;5064774;28;20045;-63
2023/04/23 02:47:15;;;;;;;118.35;44.67;;;6.60;99.90;;;;;;5064531;28;20043;-62
2023/04/23 02:49:41;;;;;;;103.47;44.63;;;6.50;99.90;;;;;;5066075;28;20036;-62
2023/04/23 02:52:07;;;;;;;108.90;44.47;;;6.50;99.90;;;;;;5081059;28;20044;-62
2023/04/23 02:54:33;;;;;;;125.60;43.90;;;6.50;99.90;;;;;;5085016;28;20281;-63
2023/04/23 02:56:58;;;;;;;114.13;43.35;;;6.40;99.90;;;;;;5073474;28;20128;-63
2023/04/23 02:59:24;;;;;;;117.05;42.88;;;6.40;99.90;;;;;;5063105;28;20556;-61
2023/04/23 03:01:50;;;;;;;124.32;43.25;;;6.30;99.90;;;;;;5082066;28;20087;-62
2023/04/23 03:04:17;;;;;;;121.60;42.88;;;6.20;99.90;;;;;;5081279;28;20083;-62
2023/04/23 03:06:42;;;;;;;116.82;44.88;;;6.20;99.90;;;;;;5047968;28;20517;-62
2023/04/23 03:09:08;;;;;;;135.43;49.80;;;6.10;99.90;;;;;;5047498;28;20234;-61
2023/04/23 03:11:34;;;;;;;151.30;49.88;;;6.10;99.90;;;;;;5048022;28;20081;-61
2023/04/23 03:14:00;;;;;;;165.50;54.55;;;6.10;99.90;;;;;;5063675;28;20351;-61
2023/04/23 03:16:30;;;;;;;170.63;51.83;;;6.10;99.90;;;;;;5065969;28;20488;-61
2023/04/23 03:18:57;;;;;;;169.82;53.60;;;6.10;99.90;;;;;;5056228;28;20039;-61
2023/04/23 03:21:23;;;;;;;175.68;52.60;;;6.00;99.90;;;;;;5084793;28;20071;-61
2023/04/23 03:23:49;;;;;;;181.65;55.53;;;6.00;99.90;;;;;;5065467;28;20044;-61
2023/04/23 03:26:15;;;;;;;165.15;55.05;;;6.00;99.90;;;;;;5064139;28;20576;-61
2023/04/23 03:28:40;;;;;;;177.98;53.47;;;6.00;99.90;;;;;;5065271;28;20500;-62
2023/04/23 03:31:06;;;;;;;174.10;55.15;;;6.00;99.90;;;;;;5047071;28;20076;-61
2023/04/23 03:33:32;;;;;;;193.43;56.15;;;6.00;99.90;;;;;;5064201;28;20051;-62
2023/04/23 03:35:57;;;;;;;194.90;57.13;;;6.00;99.90;;;;;;5065285;28;20391;-61
2023/04/23 03:38:23;;;;;;;248.75;62.67;;;6.00;99.90;;;;;;5065033;28;20100;-62
2023/04/23 03:40:49;;;;;;;233.02;59.95;;;6.00;99.90;;;;;;5063654;28;20040;-61
2023/04/23 03:43:14;;;;;;;262.20;61.75;;;6.00;99.90;;;;;;5065027;28;20265;-63
2023/04/23 03:45:40;;;;;;;244.00;62.17;;;6.00;99.90;;;;;;5063805;28;20048;-62
2023/04/23 03:48:06;;;;;;;213.65;59.50;;;6.00;99.90;;;;;;5047052;28;20044;-63
2023/04/23 03:50:34;;;;;;;231.50;60.55;;;5.90;99.90;;;;;;5066412;28;20506;-61
2023/04/23 03:53:00;;;;;;;260.35;61.45;;;5.90;99.90;;;;;;5085746;28;20140;-62
2023/04/23 03:55:26;;;;;;;553.70;72.63;;;5.90;99.90;;;;;;5047992;28;20044;-62
2023/04/23 03:57:51;;;;;;;747.33;82.13;;;5.90;99.90;;;;;;5064226;28;20093;-61
2023/04/23 04:00:17;;;;;;;881.78;91.70;;;5.90;99.90;;;;;;5063387;28;20060;-61
2023/04/23 04:02:43;;;;;;;918.50;96.95;;;5.90;99.90;;;;;;5065217;28;20517;-62
2023/04/23 04:05:12;;;;;;;549.03;72.88;;;5.90;99.90;;;;;;5063345;28;20040;-62
2023/04/23 04:07:38;;;;;;;516.22;67.07;;;5.90;99.90;;;;;;5065442;28;20040;-62
2023/04/23 04:10:05;;;;;;;490.58;69.28;;;5.90;99.90;;;;;;5046781;28;20037;-62
2023/04/23 04:12:30;;;;;;;734.45;91.45;;;5.90;99.90;;;;;;5064873;28;20135;-63
2023/04/23 04:14:56;;;;;;;727.83;99.10;;;6.00;99.90;;;;;;5063206;28;20411;-63
2023/04/23 04:17:22;;;;;;;710.15;99.90;;;6.00;99.90;;;;;;5063890;28;20451;-62
2023/04/23 04:19:48;;;;;;;772.15;106.03;;;6.10;99.90;;;;;;5064002;28;20048;-62
2023/04/23 04:22:14;;;;;;;554.00;84.90;;;6.10;99.90;;;;;;5065192;28;20036;-64
2023/04/23 04:24:40;;;;;;;575.58;87.93;;;6.10;99.90;;;;;;5062962;28;20411;-63
2023/04/23 04:27:07;;;;;;;800.10;105.47;;;6.20;99.90;;;;;;5067316;28;20048;-63
2023/04/23 04:29:33;;;;;;;1032.25;119.03;;;6.20;99.90;;;;;;5051111;28;20495;-62
2023/04/23 04:32:00;;;;;;;1075.72;121.95;;;6.30;99.90;;;;;;5068853;28;20036;-63
2023/04/23 04:34:26;;;;;;;895.42;114.18;;;6.30;99.90;;;;;;5062126;28;20044;-63
2023/04/23 04:36:52;;;;;;;847.58;112.88;;;6.30;99.90;;;;;;5054338;28;20055;-63
2023/04/23 04:39:19;;;;;;;705.88;101.15;;;6.30;99.90;;;;;;5070537;28;20047;-63
2023/04/23 04:41:45;;;;;;;752.90;104.97;;;6.40;99.90;;;;;;5057599;28;20527;-64
2023/04/23 04:44:13;;;;;;;866.83;114.30;;;6.40;99.90;;;;;;5066701;28;20528;-62
2023/04/23 04:46:39;;;;;;;592.13;89.75;;;6.40;99.90;;;;;;5050557;28;20120;-62
2023/04/23 04:49:09;;;;;;;718.33;104.43;;;6.40;99.90;;;;;;5068340;28;20040;-62
2023/04/23 04:51:39;;;;;;;838.15;108.07;;;6.40;99.90;;;;;;5061852;28;20040;-62
2023/04/23 04:54:06;;;;;;;811.17;110.65;;;6.50;99.90;;;;;;5087486;28;20075;-60
2023/04/23 04:56:33;;;;;;;751.17;107.50;;;6.50;99.90;;;;;;5075658;28;20480;-63
2023/04/23 04:58:59;;;;;;;699.03;107.20;;;6.60;99.90;;;;;;5034237;28;20544;-61
2023/04/23 05:01:27;;;;;;;743.05;109.07;;;6.60;99.90;;;;;;5050115;28;20057;-62
2023/04/23 05:03:54;;;;;;;782.58;114.43;;;6.60;99.90;;;;;;5068386;28;20458;-62
2023/04/23 05:06:19;;;;;;;894.63;127.45;;;6.70;99.90;;;;;;5066798;28;20063;-62
2023/04/23 05:08:47;;;;;;;812.97;121.03;;;6.80;99.90;;;;;;5066476;28;20037;-63
2023/04/23 05:11:14;;;;;;;884.75;129.18;;;6.90;99.90;;;;;;5066872;28;20036;-62
2023/04/23 05:13:40;;;;;;;786.45;121.18;;;7.00;99.90;;;;;;5049887;28;20106;-62
2023/04/23 05:16:06;;;;;;;672.75;118.32;;;7.10;99.90;;;;;;5066248;28;20067;-61
2023/04/23 05:18:31;;;;;;;845.80;126.75;;;7.20;99.90;;;;;;5066702;28;20128;-63
2023/04/23 05:20:57;;;;;;;1040.18;141.45;;;7.20;99.90;;;;;;5049693;28;20163;-63
2023/04/23 05:23:23;;;;;;;753.83;121.47;;;7.30;99.90;;;;;;5033744;28;20497;-62
2023/04/23 05:25:50;;;;;;;805.17;130.05;;;7.30;99.90;;;;;;5066169;28;20051;-62
2023/04/23 05:28:16;;;;;;;914.95;129.98;;;7.40;99.90;;;;;;5067562;28;20661;-63
2023/04/23 05:30:42;;;;;;;731.53;119.13;;;7.40;99.90;;;;;;5065896;28;20035;-62
2023/04/23 05:33:08;;;;;;;707.00;120.65;;;7.40;99.90;;;;;;5066622;28;20105;-63
2023/04/23 05:35:36;;;;;;;590.28;106.30;;;7.50;99.90;;;;;;5062220;28;20051;-62
2023/04/23 05:38:03;;;;;;;603.88;108.88;;;7.50;99.90;;;;;;5087381;28;20032;-64
2023/04/23 05:40:29;;;;;;;547.35;107.20;;;7.60;99.90;;;;;;5084848;28;20051;-61
2023/04/23 05:42:57;;;;;;;518.10;105.60;;;7.60;99.90;;;;;;5069331;28;20184;-61
2023/04/23 05:45:23;;;;;;;650.92;111.63;;;7.70;99.90;;;;;;5052205;28;20123;-62
2023/04/23 05:47:50;;;;;;;469.80;96.13;;;7.80;99.90;;;;;;5066196;28;20112;-62
2023/04/23 05:50:16;;;;;;;454.25;99.63;;;7.80;99.90;;;;;;5066972;28;20122;-63
2023/04/23 05:52:42;;;;;;;407.23;95.20;;;7.80;99.90;;;;;;5086244;28;20273;-64
2023/04/23 05:55:08;;;;;;;425.80;96.90;;;7.80;99.90;;;;;;5087448;28;20101;-63
2023/04/23 05:57:36;;;;;;;406.58;93.80;;;7.80;99.90;;;;;;5065920;28;20049;-63
2023/04/23 06:00:04;;;;;;;395.08;94.07;;;7.80;99.90;;;;;;5080006;28;20135;-65
2023/04/23 06:02:32;;;;;;;349.13;89.70;;;7.90;99.90;;;;;;5069163;28;20048;-61
2023/04/23 06:04:58;;;;;;;327.17;91.03;;;7.90;99.90;;;;;;5073211;28;20041;-62
2023/04/23 06:07:24;;;;;;;312.13;87.60;;;8.00;99.90;;;;;;5049333;28;20036;-64
2023/04/23 06:09:49;;;;;;;287.80;82.55;;;8.10;99.90;;;;;;5065489;28;20305;-63
2023/04/23 06:12:15;;;;;;;259.55;82.88;;;8.20;99.90;;;;;;5065338;28;20029;-62
2023/04/23 06:14:41;;;;;;;231.38;77.00;;;8.40;99.90;;;;;;5066496;28;20051;-63
2023/04/23 06:17:07;;;;;;;220.85;77.22;;;8.60;99.90;;;;;;5066955;28;20044;-64
2023/04/23 06:19:32;;;;;;;209.98;76.03;;;8.90;99.90;;;;;;5065225;28;20051;-63
2023/04/23 06:21:58;;;;;;;183.00;69.55;;;9.10;99.90;;;;;;5065516;28;20044;-63
2023/04/23 06:24:24;;;;;;;167.95;67.45;;;9.30;99.90;;;;;;5065186;28;20047;-63
2023/04/23 06:26:50;;;;;;;179.30;68.88;;;9.30;99.90;;;;;;5048886;28;20045;-64
2023/04/23 06:29:16;;;;;;;153.88;66.97;;;9.30;99.90;;;;;;5064876;28;20782;-64
2023/04/23 06:31:41;;;;;;;161.13;65.07;;;9.40;99.90;;;;;;5065225;28;20487;-60
2023/04/23 06:34:07;;;;;;;157.82;66.35;;;9.40;99.90;;;;;;5048297;28;20048;-62
2023/04/23 06:36:34;;;;;;;152.50;64.28;;;9.40;99.90;;;;;;5066628;28;20117;-62
2023/04/23 06:38:59;;;;;;;140.85;65.95;;;9.70;99.90;;;;;;5082627;28;20047;-63
2023/04/23 06:41:25;;;;;;;139.77;65.28;;;10.00;99.90;;;;;;5057529;28;20051;-62
2023/04/23 06:43:51;;;;;;;115.68;60.00;;;10.40;99.90;;;;;;5064656;28;20032;-63
2023/04/23 06:46:17;;;;;;;115.40;59.13;;;10.90;99.90;;;;;;5048182;28;20062;-63
2023/04/23 06:48:43;;;;;;;109.65;57.08;;;11.20;99.90;;;;;;5063724;28;20044;-64
2023/04/23 06:51:08;;;;;;;99.93;53.63;;;11.50;99.90;;;;;;5047910;28;20109;-64
2023/04/23 06:53:35;;;;;;;101.30;54.17;;;11.80;99.90;;;;;;5064886;28;20040;-63
2023/04/23 06:56:01;;;;;;;97.57;54.17;;;12.10;99.90;;;;;;5064572;28;20411;-63
2023/04/23 06:58:30;;;;;;;93.43;51.28;;;12.30;99.90;;;;;;5064473;28;20048;-63
2023/04/23 07:00:59;;;;;;;85.53;49.45;;;12.50;99.90;;;;;;5064080;28;20060;-62
2023/04/23 07:03:28;;;;;;;90.65;52.13;;;12.50;99.90;;;;;;5064419;28;20040;-63
2023/04/23 07:05:54;;;;;;;89.57;50.58;;;12.50;99.90;;;;;;5064286;28;20047;-63
2023/04/23 07:08:21;;;;;;;83.10;49.13;;;12.50;99.90;;;;;;5064337;28;20044;-63
2023/04/23 07:10:47;;;;;;;82.78;50.05;;;12.70;99.90;;;;;;5051014;28;20075;-64
2023/04/23 07:13:13;;;;;;;78.22;47.20;;;13.00;99.90;;;;;;5072439;28;20036;-64
2023/04/23 07:15:40;;;;;;;75.05;46.67;;;13.40;99.90;;;;;;5047698;28;20051;-64
2023/04/23 07:18:06;;;;;;;74.45;45.83;;;13.40;99.90;;;;;;5064743;28;20395;-64
2023/04/23 07:20:32;;;;;;;66.32;40.95;;;13.30;99.90;;;;;;5064146;28;20075;-65
2023/04/23 07:22:58;;;;;;;69.93;42.17;;;13.10;99.90;;;;;;5047761;28;20418;-61
2023/04/23 07:25:25;;;;;;;64.80;40.50;;;13.10;99.90;;;;;;5053378;28;20059;-63
2023/04/23 07:27:52;;;;;;;63.10;39.78;;;13.00;99.90;;;;;;5062700;28;20213;-64
2023/04/23 07:30:19;;;;;;;63.50;40.50;;;13.00;99.90;;;;;;5061534;28;20332;-63
2023/04/23 07:32:45;;;;;;;60.33;38.45;;;13.10;99.90;;;;;;5073144;28;20127;-63
2023/04/23 07:35:11;;;;;;;59.22;36.72;;;13.00;99.90;;;;;;5043280;28;20044;-63
2023/04/23 07:37:37;;;;;;;61.13;39.17;;;13.00;99.90;;;;;;5060226;28;20048;-64
2023/04/23 07:40:04;;;;;;;57.33;36.47;;;12.90;99.90;;;;;;5071087;28;20043;-64
2023/04/23 07:42:31;;;;;;;59.10;37.58;;;13.00;99.90;;;;;;5052013;28;20198;-64
2023/04/23 07:44:56;;;;;;;55.67;35.65;;;13.20;99.90;;;;;;5082305;28;20044;-62
2023/04/23 07:47:22;;;;;;;55.13;36.25;;;13.40;99.90;;;;;;5073710;28;20032;-62
2023/04/23 07:49:48;;;;;;;54.88;34.58;;;13.50;99.90;;;;;;5075564;28;20085;-63
2023/04/23 07:52:15;;;;;;;51.70;34.65;;;13.70;99.90;;;;;;5065638;28;20044;-64
2023/04/23 07:54:41;;;;;;;49.70;34.15;;;14.00;99.90;;;;;;5052114;28;20394;-63
2023/04/23 07:57:07;;;;;;;53.35;34.15;;;14.60;99.90;;;;;;5074967;28;20040;-62
2023/04/23 07:59:33;;;;;;;46.03;31.40;;;15.30;99.90;;;;;;5050946;28;20044;-63
2023/04/23 08:01:59;;;;;;;46.38;32.33;;;15.90;99.90;;;;;;5070525;28;20044;-65
2023/04/23 08:04:24;;;;;;;46.60;32.40;;;16.40;99.90;;;;;;5059622;28;20491;-63
2023/04/23 08:06:51;;;;;;;43.45;31.88;;;16.80;99.90;;;;;;5074723;28;20452;-62
2023/04/23 08:09:17;;;;;;;44.15;31.30;;;17.00;99.90;;;;;;5065558;28;20043;-65
2023/04/23 08:11:44;;;;;;;44.25;31.35;;;17.30;99.90;;;;;;5050044;28;20044;-63
2023/04/23 08:14:10;;;;;;;40.20;29.40;;;17.50;99.90;;;;;;5063493;28;20040;-63
2023/04/23 08:16:36;;;;;;;43.13;30.55;;;17.60;99.90;;;;;;5067922;28;20043;-62
2023/04/23 08:19:04;;;;;;;42.08;29.63;;;17.70;99.90;;;;;;5065239;28;20093;-62
2023/04/23 08:21:31;;;;;;;42.55;30.45;;;17.60;99.90;;;;;;5061269;28;20061;-62
2023/04/23 08:23:57;;;;;;;44.75;30.63;;;17.60;99.90;;;;;;5056008;28;20543;-64
2023/04/23 08:26:23;;;;;;;38.45;28.25;;;17.30;99.90;;;;;;5053673;28;20090;-64
2023/04/23 08:28:48;;;;;;;42.80;29.52;;;17.50;99.90;;;;;;5072796;28;20511;-64
2023/04/23 08:31:15;;;;;;;39.03;27.90;;;17.60;99.90;;;;;;5074891;28;20067;-63
2023/04/23 08:33:41;;;;;;;36.53;25.77;;;17.70;99.90;;;;;;5069757;28;20228;-64
2023/04/23 08:36:07;;;;;;;38.40;26.80;;;17.90;99.90;;;;;;5063494;28;20051;-64
2023/04/23 08:38:32;;;;;;;34.78;26.38;;;18.10;99.90;;;;;;5063252;28;20032;-62
2023/04/23 08:40:59;;;;;;;37.35;25.77;;;18.40;99.90;;;;;;5064643;28;20467;-64
2023/04/23 08:43:37;;;;;;;35.40;27.15;;;18.30;99.90;;;;;;5063584;28;20477;-62
2023/04/23 08:46:03;;;;;;;33.85;24.83;;;18.20;99.90;;;;;;5064355;28;20049;-65
2023/04/23 08:48:30;;;;;;;34.97;24.13;;;18.10;99.90;;;;;;5046944;28;20037;-64
2023/04/23 08:50:58;;;;;;;31.67;23.35;;;18.20;99.90;;;;;;5063176;28;20453;-62
2023/04/23 08:53:28;;;;;;;30.85;21.42;;;18.50;99.90;;;;;;5046864;28;20505;-63
2023/04/23 08:55:58;;;;;;;29.55;21.02;;;18.50;99.90;;;;;;5041081;28;20139;-64
2023/04/23 08:58:26;;;;;;;28.02;20.00;;;18.80;99.90;;;;;;5067301;28;20044;-63
2023/04/23 09:00:53;;;;;;;29.58;21.92;;;19.30;99.90;;;;;;5062219;28;20040;-62
2023/04/23 09:03:20;;;;;;;30.00;22.30;;;19.10;99.90;;;;;;5067149;28;20047;-64
2023/04/23 09:05:47;;;;;;;28.27;19.85;;;19.00;99.90;;;;;;5069308;28;20317;-62
2023/04/23 09:08:12;;;;;;;27.75;20.30;;;18.50;99.90;;;;;;5065150;28;20231;-63
2023/04/23 09:10:41;;;;;;;26.38;19.42;;;18.30;99.90;;;;;;5065819;28;20411;-63
2023/04/23 09:13:07;;;;;;;29.42;19.02;;;18.50;99.90;;;;;;5053387;28;20032;-62
2023/04/23 09:15:38;;;;;;;26.80;20.40;;;18.70;99.90;;;;;;5070911;28;20698;-64
2023/04/23 09:18:04;;;;;;;26.65;20.13;;;19.20;99.90;;;;;;5061065;28;20051;-63
2023/04/23 09:20:30;;;;;;;30.00;19.70;;;19.40;99.90;;;;;;5078273;28;20082;-64
2023/04/23 09:22:56;;;;;;;24.65;17.35;;;19.70;99.90;;;;;;5061045;28;20495;-63
2023/04/23 09:25:22;;;;;;;26.27;18.38;;;19.60;99.90;;;;;;5074090;28;20048;-63
2023/04/23 09:27:50;;;;;;;21.73;15.05;;;19.30;99.90;;;;;;5054344;28;20411;-62
2023/04/23 09:30:17;;;;;;;23.70;17.60;;;19.30;99.90;;;;;;5050203;28;20037;-64
2023/04/23 09:32:45;;;;;;;24.00;16.35;;;19.20;99.90;;;;;;5053199;28;20043;-65
2023/04/23 09:35:21;;;;;;;25.05;16.25;;;18.60;99.80;;;;;;5072016;28;20078;-63
2023/04/23 09:37:52;;;;;;;25.23;16.42;;;18.00;99.90;;;;;;5055801;28;20044;-64
2023/04/23 09:40:21;;;;;;;25.35;16.88;;;18.00;99.90;;;;;;5055636;28;20043;-63
2023/04/23 09:42:48;;;;;;;23.25;14.05;;;17.70;99.90;;;;;;5072233;28;20059;-65
2023/04/23 09:45:14;;;;;;;20.10;13.13;;;17.20;99.90;;;;;;5057489;28;20441;-64
2023/04/23 09:47:51;;;;;;;20.15;13.70;;;17.00;99.90;;;;;;5074078;28;20044;-63
2023/04/23 09:50:18;;;;;;;22.40;13.75;;;17.00;99.90;;;;;;5058474;28;20131;-63
2023/04/23 09:52:44;;;;;;;20.65;14.05;;;17.00;99.90;;;;;;5056932;28;20462;-62
2023/04/23 09:55:10;;;;;;;18.33;12.48;;;16.90;99.90;;;;;;5076457;28;20040;-65
2023/04/23 09:57:40;;;;;;;23.45;12.85;;;17.00;99.90;;;;;;5038866;28;20130;-62
2023/04/23 10:00:17;;;;;;;20.00;12.10;;;16.90;99.90;;;;;;5074243;28;20055;-65
2023/04/23 10:02:48;;;;;;;18.65;11.88;;;17.30;99.90;;;;;;5073819;28;20058;-63
2023/04/23 10:05:19;;;;;;;19.27;11.30;;;17.70;99.90;;;;;;5078865;28;20083;-65
2023/04/23 10:07:48;;;;;;;20.52;11.63;;;18.10;99.90;;;;;;5083290;28;20044;-65
2023/04/23 10:10:14;;;;;;;14.23;7.90;;;18.50;99.90;;;;;;5084474;28;20139;-62
2023/04/23 10:12:41;;;;;;;17.92;8.20;;;18.70;99.90;;;;;;5084162;28;20048;-63
2023/04/23 10:15:09;;;;;;;15.98;8.50;;;18.60;99.90;;;;;;5071562;28;20382;-63
2023/04/23 10:17:36;;;;;;;22.35;12.07;;;18.60;99.90;;;;;;5053789;28;20032;-64
2023/04/23 10:20:02;;;;;;;20.30;9.82;;;18.80;99.90;;;;;;5058690;28;20123;-64
2023/04/23 10:22:30;;;;;;;17.95;10.40;;;18.70;99.90;;;;;;5048748;28;20400;-64
2023/04/23 10:24:57;;;;;;;17.38;9.15;;;18.60;99.90;;;;;;5032879;28;20135;-63
2023/04/23 10:27:27;;;;;;;15.10;7.40;;;18.50;99.90;;;;;;5065520;28;20048;-63
2023/04/23 10:29:53;;;;;;;12.73;7.60;;;18.20;99.90;;;;;;5073680;28;20067;-63
2023/04/23 10:32:19;;;;;;;20.02;8.27;;;18.20;99.90;;;;;;5067758;28;20149;-62
2023/04/23 10:34:46;;;;;;;11.98;6.43;;;18.20;99.90;;;;;;5076376;28;20514;-64
2023/04/23 10:37:14;;;;;;;14.45;6.75;;;18.50;99.90;;;;;;5071587;28;20385;-63
2023/04/23 10:39:44;;;;;;;14.52;6.85;;;19.00;99.70;;;;;;5074006;28;20130;-64
2023/04/23 10:42:12;;;;;;;13.02;6.38;;;19.30;99.40;;;;;;5070551;28;20153;-64
2023/04/23 10:44:41;;;;;;;12.48;6.43;;;19.40;98.80;;;;;;5072987;28;20044;-64
2023/04/23 10:47:15;;;;;;;14.68;5.72;;;19.50;98.00;;;;;;5063563;28;20044;-63
2023/04/23 10:49:42;;;;;;;12.00;5.22;;;19.70;96.50;;;;;;5079402;28;20040;-63
2023/04/23 10:52:14;;;;;;;13.65;5.43;;;19.30;96.50;;;;;;5077527;28;20549;-61
2023/04/23 10:54:41;;;;;;;10.82;5.07;;;18.90;95.90;;;;;;5073496;28;20045;-65
2023/04/23 10:57:07;;;;;;;15.70;6.00;;;19.00;96.90;;;;;;5078268;28;20044;-62
2023/04/23 10:59:37;;;;;;;13.32;5.32;;;18.90;95.90;;;;;;5059497;28;20059;-61
2023/04/23 11:02:08;;;;;;;13.88;5.20;;;18.90;96.40;;;;;;5070243;28;20044;-62
2023/04/23 11:04:35;;;;;;;14.35;5.28;;;18.70;96.40;;;;;;5055690;28;20033;-61
2023/04/23 11:07:09;;;;;;;12.68;4.28;;;18.40;96.90;;;;;;5054147;28;20427;-62
2023/04/23 11:09:43;;;;;;;12.82;4.55;;;18.70;96.80;;;;;;5056851;28;20347;-61
2023/04/23 11:12:27;;;;;;;12.63;4.20;;;19.40;95.80;;;;;;5072093;28;20051;-62
2023/04/23 11:14:54;;;;;;;11.32;3.53;;;20.00;94.10;;;;;;5073009;28;20111;-65
2023/04/23 11:17:30;;;;;;;12.43;4.10;;;20.10;94.00;;;;;;5038672;28;20040;-62
2023/04/23 11:20:12;;;;;;;9.98;3.72;;;20.00;93.30;;;;;;5073717;28;20032;-62
2023/04/23 11:22:43;;;;;;;9.57;3.60;;;19.90;94.10;;;;;;5074044;28;20240;-63
2023/04/23 11:25:11;;;;;;;11.88;3.88;;;20.00;93.00;;;;;;5074738;28;20052;-63
2023/04/23 11:27:42;;;;;;;13.50;4.03;;;19.80;92.40;;;;;;5055356;28;20097;-63
2023/04/23 11:30:12;;;;;;;12.93;3.35;;;19.50;91.50;;;;;;5066822;28;20595;-64
2023/04/23 11:32:43;;;;;;;11.55;3.28;;;19.70;91.20;;;;;;5070185;28;20036;-65
2023/04/23 11:35:12;;;;;;;8.82;3.10;;;19.70;91.20;;;;;;5071385;28;20116;-63
2023/04/23 11:37:39;;;;;;;8.48;2.70;;;19.60;91.20;;;;;;5069159;28;20044;-65
2023/04/23 11:40:08;;;;;;;10.40;2.80;;;19.30;91.00;;;;;;5068028;28;20544;-63
2023/04/23 11:42:46;;;;;;;12.23;3.05;;;19.00;90.40;;;;;;5072055;28;20481;-63
2023/04/23 11:45:23;;;;;;;11.13;3.00;;;18.50;89.80;;;;;;5055230;28;20127;-65
2023/04/23 11:47:55;;;;;;;9.48;2.97;;;18.40;91.20;;;;;;5072341;28;20044;-63
2023/04/23 11:50:31;;;;;;;11.27;3.25;;;18.60;91.60;;;;;;5053168;28;20040;-63
2023/04/23 11:53:09;;;;;;;11.82;2.92;;;19.60;91.10;;;;;;5071230;28;20044;-64
2023/04/23 11:55:35;;;;;;;13.48;2.97;;;20.20;90.10;;;;;;5053852;28;20032;-66
2023/04/23 11:58:02;;;;;;;12.15;3.05;;;20.30;87.80;;;;;;5071057;28;20423;-65
2023/04/23 12:00:28;;;;;;;10.90;2.88;;;20.10;87.70;;;;;;5049359;28;20174;-64
2023/04/23 12:02:59;;;;;;;11.10;3.00;;;19.70;87.90;;;;;;5053891;28;20568;-65
2023/04/23 12:05:27;;;;;;;;;;;19.80;90.00;;;;;;5072810;28;20866;-64
2023/04/23 12:07:53;;;;;;;7.50;2.25;;;20.20;88.50;;;;;;5070746;28;19923;-64
2023/04/23 12:10:23;;;;;;;10.38;2.72;;;20.40;85.90;;;;;;5052500;28;20040;-65
2023/04/23 12:12:52;;;;;;;7.93;2.65;;;20.70;86.80;;;;;;5055102;28;20036;-65
2023/04/23 12:15:21;;;;;;;11.10;2.70;;;20.40;85.80;;;;;;5071233;28;20121;-63
2023/04/23 12:17:49;;;;;;;11.05;2.53;;;20.20;87.10;;;;;;5072635;28;20566;-65
2023/04/23 12:20:21;;;;;;;8.10;2.30;;;20.10;88.10;;;;;;5056828;28;20093;-63
2023/04/23 12:22:47;;;;;;;10.25;2.10;;;20.10;84.90;;;;;;5061804;28;20115;-64
2023/04/23 12:25:20;;;;;;;8.13;2.25;;;19.80;82.50;;;;;;5065887;28;20052;-64
2023/04/23 12:27:46;;;;;;;7.13;1.90;;;19.80;82.50;;;;;;5076372;28;20423;-63